createdAt,value
2018-07-01T00:01:23.759Z,98445.00
2018-07-01T00:03:55.251Z,98453.31
2018-07-01T00:06:27.016Z,98452.48
2018-07-01T00:08:58.615Z,98448.83
2018-07-01T00:11:29.784Z,98449.97
2018-07-01T00:14:01.089Z,98451.60
2018-07-01T00:16:32.457Z,98447.47
2018-07-01T00:19:03.629Z,98456.46
2018-07-01T00:21:34.695Z,98452.89
2018-07-01T00:24:05.968Z,98454.63
2018-07-01T00:26:37.292Z,98452.54
2018-07-01T00:29:08.645Z,98452.75
2018-07-01T00:31:40.627Z,98450.28
2018-07-01T00:34:11.710Z,98452.81
2018-07-01T00:36:43.044Z,98456.45
2018-07-01T00:39:14.334Z,98450.31
2018-07-01T00:41:45.575Z,98455.84
2018-07-01T00:44:17.896Z,98451.47
2018-07-01T00:46:49.280Z,98452.98
2018-07-01T00:49:21.649Z,98457.97
2018-07-01T00:51:52.917Z,98458.83
2018-07-01T00:54:24.197Z,98456.84
2018-07-01T00:56:55.426Z,98457.20
2018-07-01T00:59:26.137Z,98462.66
2018-07-01T01:01:57.371Z,98461.20
2018-07-01T01:04:28.705Z,98464.18
2018-07-01T01:07:00.009Z,98462.56
2018-07-01T01:09:31.330Z,98461.23
2018-07-01T01:12:03.373Z,98463.27
2018-07-01T01:14:34.589Z,98456.69
2018-07-01T01:17:05.898Z,98461.02
2018-07-01T01:19:37.116Z,98456.88
2018-07-01T01:22:08.567Z,98456.22
2018-07-01T01:24:40.677Z,98452.91
2018-07-01T01:27:11.955Z,98451.75
2018-07-01T01:29:44.125Z,98449.25
2018-07-01T01:32:15.379Z,98448.58
2018-07-01T01:34:46.910Z,98442.64
2018-07-01T01:37:18.166Z,98440.50
2018-07-01T01:39:49.369Z,98444.01
2018-07-01T01:42:24.739Z,98440.70
2018-07-01T01:45:01.772Z,98443.84
2018-07-01T01:47:50.830Z,98444.88
2018-07-01T01:50:29.860Z,98446.36
2018-07-01T01:53:13.308Z,98449.86
2018-07-01T01:55:55.993Z,98452.34
2018-07-01T01:59:32.533Z,98451.50
2018-07-01T02:02:11.064Z,98447.68
2018-07-01T02:04:48.345Z,98449.34
2018-07-01T02:07:29.245Z,98457.44
2018-07-01T02:10:00.413Z,98451.98
2018-07-01T02:12:31.475Z,98461.25
2018-07-01T02:15:06.007Z,98452.64
2018-07-01T02:17:42.410Z,98454.14
2018-07-01T02:20:15.120Z,98458.28
2018-07-01T02:22:50.132Z,98456.47
2018-07-01T02:25:23.855Z,98459.12
2018-07-01T02:27:55.227Z,98464.73
2018-07-01T02:30:26.298Z,98455.97
2018-07-01T02:32:57.505Z,98458.80
2018-07-01T02:35:29.761Z,98453.16
2018-07-01T02:38:00.892Z,98457.97
2018-07-01T02:40:31.809Z,98456.64
2018-07-01T02:43:02.635Z,98460.27
2018-07-01T02:45:33.848Z,98459.30
2018-07-01T02:48:05.187Z,98464.41
2018-07-01T02:50:36.406Z,98459.30
2018-07-01T02:53:07.570Z,98460.61
2018-07-01T02:55:38.804Z,98465.86
2018-07-01T02:58:09.793Z,98466.52
2018-07-01T03:00:41.236Z,98470.00
2018-07-01T03:03:13.345Z,98473.12
2018-07-01T03:05:44.303Z,98473.12
2018-07-01T03:08:15.256Z,98476.95
2018-07-01T03:10:46.342Z,98477.75
2018-07-01T03:13:17.481Z,98477.75
2018-07-01T03:15:49.226Z,98482.89
2018-07-01T03:18:20.470Z,98484.17
2018-07-01T03:20:52.574Z,98488.96
2018-07-01T03:23:23.769Z,98490.90
2018-07-01T03:25:54.780Z,98502.48
2018-07-01T03:28:25.810Z,98497.50
2018-07-01T03:30:56.781Z,98494.17
2018-07-01T03:33:28.052Z,98495.15
2018-07-01T03:35:59.506Z,98496.48
2018-07-01T03:38:31.949Z,98500.80
2018-07-01T03:41:03.198Z,98503.13
2018-07-01T03:43:34.288Z,98506.27
2018-07-01T03:46:05.686Z,98505.13
2018-07-01T03:48:37.892Z,98495.05
2018-07-01T03:51:09.924Z,98499.23
2018-07-01T03:53:43.026Z,98492.16
2018-07-01T03:56:14.793Z,98496.45
2018-07-01T03:58:46.297Z,98500.61
2018-07-01T04:01:18.102Z,98493.02
2018-07-01T04:03:49.453Z,98494.00
2018-07-01T04:06:20.555Z,98497.83
2018-07-01T04:08:51.959Z,98493.98
2018-07-01T04:11:24.010Z,98502.94
2018-07-01T04:13:56.148Z,98498.98
2018-07-01T04:16:27.274Z,98502.95
2018-07-01T04:18:58.526Z,98505.59
2018-07-01T04:21:29.731Z,98505.59
2018-07-01T04:24:01.074Z,98505.11
2018-07-01T04:26:32.389Z,98505.11
2018-07-01T04:29:04.245Z,98507.27
2018-07-01T04:31:35.579Z,98502.95
2018-07-01T04:34:07.047Z,98513.87
2018-07-01T04:36:38.323Z,98513.41
2018-07-01T04:39:10.549Z,98508.92
2018-07-01T04:41:41.699Z,98511.89
2018-07-01T04:44:13.733Z,98502.60
2018-07-01T04:46:45.485Z,98504.37
2018-07-01T04:49:16.730Z,98505.16
2018-07-01T04:51:47.903Z,98509.92
2018-07-01T04:54:19.239Z,98511.39
2018-07-01T04:56:50.380Z,98510.39
2018-07-01T04:59:21.913Z,98509.75
2018-07-01T05:01:53.229Z,98508.22
2018-07-01T05:04:24.501Z,98517.45
2018-07-01T05:06:55.570Z,98516.46
2018-07-01T05:09:26.411Z,98518.60
2018-07-01T05:11:57.548Z,98520.60
2018-07-01T05:14:29.634Z,98521.37
2018-07-01T05:17:00.818Z,98514.09
2018-07-01T05:19:31.798Z,98521.84
2018-07-01T05:22:02.884Z,98523.30
2018-07-01T05:24:33.848Z,98524.11
2018-07-01T05:27:05.208Z,98524.39
2018-07-01T05:29:36.203Z,98521.25
2018-07-01T05:32:07.316Z,98521.03
2018-07-01T05:34:38.714Z,98524.31
2018-07-01T05:37:10.087Z,98527.41
2018-07-01T05:39:42.068Z,98521.16
2018-07-01T05:42:13.576Z,98525.69
2018-07-01T05:44:45.147Z,98520.61
2018-07-01T05:47:16.231Z,98525.16
2018-07-01T05:49:47.504Z,98528.68
2018-07-01T05:52:18.621Z,98533.03
2018-07-01T05:54:49.963Z,98533.78
2018-07-01T05:57:22.324Z,98532.20
2018-07-01T05:59:53.541Z,98532.59
2018-07-01T06:02:24.919Z,98530.86
2018-07-01T06:04:56.080Z,98545.89
2018-07-01T06:07:27.383Z,98541.89
2018-07-01T06:09:58.771Z,98537.93
2018-07-01T06:12:30.087Z,98543.63
2018-07-01T06:15:01.891Z,98543.70
2018-07-01T06:17:33.076Z,98544.50
2018-07-01T06:20:04.999Z,98538.48
2018-07-01T06:22:36.424Z,98537.77
2018-07-01T06:25:08.014Z,98534.94
2018-07-01T06:27:38.592Z,98539.77
2018-07-01T06:30:11.268Z,98538.72
2018-07-01T06:32:42.538Z,98542.88
2018-07-01T06:35:14.743Z,98548.16
2018-07-01T06:37:47.431Z,98541.24
2018-07-01T06:40:19.117Z,98545.97
2018-07-01T06:42:50.525Z,98542.86
2018-07-01T06:45:21.931Z,98544.78
2018-07-01T06:47:53.129Z,98549.30
2018-07-01T06:50:24.652Z,98556.45
2018-07-01T06:52:55.950Z,98561.36
2018-07-01T06:55:27.230Z,98559.34
2018-07-01T06:57:59.187Z,98557.17
2018-07-01T07:00:31.172Z,98552.34
2018-07-01T07:03:02.665Z,98555.20
2018-07-01T07:05:34.163Z,98559.06
2018-07-01T07:08:05.135Z,98553.77
2018-07-01T07:10:36.970Z,98555.63
2018-07-01T07:13:09.109Z,98565.03
2018-07-01T07:15:41.997Z,98551.16
2018-07-01T07:18:15.107Z,98552.78
2018-07-01T07:20:47.015Z,98559.34
2018-07-01T07:23:18.646Z,98552.42
2018-07-01T07:25:51.550Z,98558.76
2018-07-01T07:28:23.449Z,98547.98
2018-07-01T07:30:57.313Z,98555.59
2018-07-01T07:33:29.728Z,98559.66
2018-07-01T07:36:02.718Z,98556.39
2018-07-01T07:38:36.896Z,98559.03
2018-07-01T07:41:08.346Z,98556.48
2018-07-01T07:43:43.768Z,98569.89
2018-07-01T07:46:18.352Z,98558.40
2018-07-01T07:48:50.496Z,98565.70
2018-07-01T07:51:22.168Z,98560.78
2018-07-01T07:53:54.898Z,98563.02
2018-07-01T07:56:27.307Z,98556.06
2018-07-01T07:58:59.766Z,98555.69
2018-07-01T08:01:33.811Z,98558.75
2018-07-01T08:04:08.771Z,98549.88
2018-07-01T08:06:42.062Z,98556.53
2018-07-01T08:09:15.624Z,98552.05
2018-07-01T08:11:48.217Z,98554.91
2018-07-01T08:14:20.807Z,98549.56
2018-07-01T08:16:52.853Z,98552.61
2018-07-01T08:19:24.851Z,98550.88
2018-07-01T08:21:57.066Z,98548.21
2018-07-01T08:24:29.698Z,98555.55
2018-07-01T08:27:01.592Z,98548.50
2018-07-01T08:29:34.060Z,98550.74
2018-07-01T08:32:07.622Z,98548.34
2018-07-01T08:34:40.224Z,98549.34
2018-07-01T08:37:13.366Z,98545.00
2018-07-01T08:39:46.974Z,98553.25
2018-07-01T08:42:24.454Z,98548.93
2018-07-01T08:44:57.274Z,98559.53
2018-07-01T08:47:30.565Z,98559.63
2018-07-01T08:50:04.141Z,98558.80
2018-07-01T08:52:38.362Z,98553.39
2018-07-01T08:55:10.174Z,98559.34
2018-07-01T08:57:43.968Z,98558.44
2018-07-01T09:00:16.942Z,98561.15
2018-07-01T09:02:55.594Z,98560.97
2018-07-01T09:05:28.567Z,98557.09
2018-07-01T09:08:00.491Z,98560.09
2018-07-01T09:10:33.269Z,98565.11
2018-07-01T09:13:09.231Z,98556.86
2018-07-01T09:15:43.090Z,98564.95
2018-07-01T09:18:24.816Z,98569.58
2018-07-01T09:20:57.180Z,98568.95
2018-07-01T09:23:29.989Z,98570.98
2018-07-01T09:26:05.072Z,98578.39
2018-07-01T09:28:38.030Z,98576.09
2018-07-01T09:31:11.159Z,98572.83
2018-07-01T09:33:45.028Z,98579.42
2018-07-01T09:36:19.837Z,98575.06
2018-07-01T09:38:53.619Z,98581.27
2018-07-01T09:41:28.054Z,98575.50
2018-07-01T09:44:01.203Z,98587.55
2018-07-01T09:46:34.703Z,98582.06
2018-07-01T09:49:08.335Z,98569.78
2018-07-01T09:51:42.055Z,98559.36
2018-07-01T09:54:14.298Z,98568.22
2018-07-01T09:56:46.721Z,98565.12
2018-07-01T09:59:18.364Z,98571.23
2018-07-01T10:01:55.852Z,98563.06
2018-07-01T10:04:27.898Z,98577.34
2018-07-01T10:07:03.448Z,98566.05
2018-07-01T10:09:39.330Z,98562.67
2018-07-01T10:12:10.649Z,98564.28
2018-07-01T10:14:43.595Z,98566.09
2018-07-01T10:17:16.823Z,98563.61
2018-07-01T10:19:49.861Z,98564.41
2018-07-01T10:22:21.516Z,98558.73
2018-07-01T10:24:55.545Z,98568.16
2018-07-01T10:27:29.059Z,98563.72
2018-07-01T10:30:03.924Z,98559.92
2018-07-01T10:32:37.620Z,98551.19
2018-07-01T10:35:10.285Z,98549.82
2018-07-01T10:37:42.020Z,98548.56
2018-07-01T10:40:12.526Z,98553.02
2018-07-01T10:42:45.191Z,98550.48
2018-07-01T10:45:17.798Z,98554.34
2018-07-01T10:47:49.741Z,98553.52
2018-07-01T10:50:22.584Z,98545.10
2018-07-01T10:52:58.315Z,98550.25
2018-07-01T10:55:31.117Z,98556.05
2018-07-01T10:58:05.968Z,98546.88
2018-07-01T11:00:39.170Z,98548.23
2018-07-01T11:03:13.314Z,98549.67
2018-07-01T11:05:45.974Z,98545.34
2018-07-01T11:08:18.132Z,98547.13
2018-07-01T11:10:52.689Z,98540.39
2018-07-01T11:13:24.481Z,98544.31
2018-07-01T11:15:57.003Z,98545.20
2018-07-01T11:18:31.052Z,98535.31
2018-07-01T11:21:03.587Z,98541.81
2018-07-01T11:23:36.344Z,98537.34
2018-07-01T11:26:09.769Z,98529.29
2018-07-01T11:28:43.260Z,98537.19
2018-07-01T11:31:16.353Z,98539.52
2018-07-01T11:33:48.325Z,98530.27
2018-07-01T11:36:20.334Z,98530.41
2018-07-01T11:38:54.280Z,98532.88
2018-07-01T11:41:27.651Z,98529.36
2018-07-01T11:43:59.927Z,98532.26
2018-07-01T11:46:32.276Z,98519.16
2018-07-01T11:49:04.946Z,98517.05
2018-07-01T11:51:38.579Z,98516.31
2018-07-01T11:54:12.645Z,98512.11
2018-07-01T11:56:45.833Z,98513.97
2018-07-01T11:59:18.530Z,98516.58
2018-07-01T12:01:51.769Z,98520.13
2018-07-01T12:04:26.816Z,98520.39
2018-07-01T12:06:59.163Z,98518.12
2018-07-01T12:09:31.776Z,98515.77
2018-07-01T12:12:03.869Z,98509.05
2018-07-01T12:14:35.845Z,98508.58
2018-07-01T12:17:07.867Z,98512.67
2018-07-01T12:19:42.496Z,98511.59
2018-07-01T12:22:15.809Z,98503.34
2018-07-01T12:24:49.550Z,98506.92
2018-07-01T12:27:23.899Z,98503.30
2018-07-01T12:29:56.145Z,98503.34
2018-07-01T12:32:29.592Z,98502.00
2018-07-01T12:35:01.988Z,98496.61
2018-07-01T12:37:35.253Z,98490.33
2018-07-01T12:40:07.567Z,98498.63
2018-07-01T12:42:40.657Z,98493.39
2018-07-01T12:45:15.841Z,98498.69
2018-07-01T12:47:48.997Z,98485.45
2018-07-01T12:50:20.544Z,98493.65
2018-07-01T12:52:53.825Z,98492.42
2018-07-01T12:55:27.234Z,98479.52
2018-07-01T12:58:00.159Z,98491.29
2018-07-01T13:00:32.996Z,98488.20
2018-07-01T13:03:06.151Z,98501.67
2018-07-01T13:05:38.831Z,98503.62
2018-07-01T13:08:11.340Z,98483.41
2018-07-01T13:10:44.817Z,98473.66
2018-07-01T13:13:17.280Z,98474.28
2018-07-01T13:15:51.027Z,98473.56
2018-07-01T13:18:25.886Z,98484.53
2018-07-01T13:20:58.880Z,98471.19
2018-07-01T13:23:30.346Z,98470.13
2018-07-01T13:26:03.135Z,98468.77
2018-07-01T13:28:37.656Z,98457.54
2018-07-01T13:31:10.153Z,98458.47
2018-07-01T13:33:42.355Z,98457.88
2018-07-01T13:36:14.786Z,98449.64
2018-07-01T13:38:46.781Z,98453.84
2018-07-01T13:41:18.874Z,98458.11
2018-07-01T13:43:52.481Z,98446.00
2018-07-01T13:46:25.074Z,98451.30
2018-07-01T13:48:57.592Z,98445.42
2018-07-01T13:51:31.210Z,98447.36
2018-07-01T13:54:03.866Z,98446.80
2018-07-01T13:56:38.635Z,98443.47
2018-07-01T13:59:11.398Z,98443.81
2018-07-01T14:01:44.441Z,98441.23
2018-07-01T14:04:18.410Z,98441.94
2018-07-01T14:06:51.093Z,98436.92
2018-07-01T14:09:24.452Z,98438.26
2018-07-01T14:11:56.920Z,98431.81
2018-07-01T14:14:29.364Z,98432.98
2018-07-01T14:17:01.633Z,98431.72
2018-07-01T14:19:34.678Z,98427.70
2018-07-01T14:22:08.035Z,98420.83
2018-07-01T14:24:41.237Z,98424.27
2018-07-01T14:27:13.206Z,98431.50
2018-07-01T14:29:45.406Z,98434.11
2018-07-01T14:32:18.206Z,98424.32
2018-07-01T14:34:51.514Z,98424.60
2018-07-01T14:37:23.603Z,98425.23
2018-07-01T14:39:56.177Z,98419.83
2018-07-01T14:42:27.903Z,98425.55
2018-07-01T14:44:59.979Z,98417.72
2018-07-01T14:47:34.318Z,98419.63
2018-07-01T14:50:10.109Z,98417.97
2018-07-01T14:52:43.802Z,98414.75
2018-07-01T14:55:16.178Z,98419.24
2018-07-01T14:57:47.723Z,98418.36
2018-07-01T15:00:19.608Z,98421.68
2018-07-01T15:02:52.467Z,98414.21
2018-07-01T15:05:24.062Z,98413.80
2018-07-01T15:07:56.591Z,98410.27
2018-07-01T15:10:28.857Z,98412.30
2018-07-01T15:13:00.637Z,98417.24
2018-07-01T15:15:32.864Z,98415.11
2018-07-01T15:18:04.729Z,98412.12
2018-07-01T15:20:36.639Z,98413.00
2018-07-01T15:23:08.253Z,98416.45
2018-07-01T15:25:47.393Z,98417.27
2018-07-01T15:28:20.031Z,98409.95
2018-07-01T15:30:52.897Z,98408.11
2018-07-01T15:33:24.811Z,98411.73
2018-07-01T15:35:56.339Z,98409.13
2018-07-01T15:38:30.567Z,98412.62
2018-07-01T15:41:02.111Z,98418.76
2018-07-01T15:43:35.892Z,98417.08
2018-07-01T15:46:08.477Z,98419.77
2018-07-01T15:48:41.332Z,98411.18
2018-07-01T15:51:13.207Z,98415.52
2018-07-01T15:53:46.126Z,98422.17
2018-07-01T15:56:18.032Z,98414.91
2018-07-01T15:58:50.011Z,98406.30
2018-07-01T16:01:22.089Z,98410.62
2018-07-01T16:03:53.710Z,98407.47
2018-07-01T16:06:25.457Z,98407.81
2018-07-01T16:08:58.233Z,98416.27
2018-07-01T16:11:30.000Z,98414.41
2018-07-01T16:14:01.836Z,98420.55
2018-07-01T16:16:34.055Z,98422.55
2018-07-01T16:19:05.557Z,98429.15
2018-07-01T16:21:37.515Z,98424.88
2018-07-01T16:24:10.174Z,98425.53
2018-07-01T16:26:46.936Z,98428.70
2018-07-01T16:29:18.958Z,98434.22
2018-07-01T16:31:50.688Z,98430.50
2018-07-01T16:34:22.434Z,98432.30
2018-07-01T16:36:55.448Z,98429.98
2018-07-01T16:39:27.525Z,98429.88
2018-07-01T16:41:59.207Z,98426.93
2018-07-01T16:44:30.134Z,98424.67
2018-07-01T16:47:02.377Z,98427.67
2018-07-01T16:49:33.970Z,98427.75
2018-07-01T16:52:05.692Z,98432.63
2018-07-01T16:54:39.585Z,98429.41
2018-07-01T16:57:12.567Z,98431.22
2018-07-01T16:59:44.165Z,98434.41
2018-07-01T17:02:16.206Z,98438.47
2018-07-01T17:04:48.343Z,98429.81
2018-07-01T17:07:20.973Z,98433.75
2018-07-01T17:09:54.159Z,98431.44
2018-07-01T17:12:27.627Z,98438.68
2018-07-01T17:15:00.115Z,98443.22
2018-07-01T17:17:33.191Z,98441.29
2018-07-01T17:20:04.985Z,98441.74
2018-07-01T17:22:37.591Z,98440.21
2018-07-01T17:25:10.015Z,98433.80
2018-07-01T17:27:42.415Z,98435.36
2018-07-01T17:30:15.614Z,98439.43
2018-07-01T17:32:52.527Z,98449.60
2018-07-01T17:35:25.925Z,98440.98
2018-07-01T17:37:58.117Z,98445.00
2018-07-01T17:40:30.011Z,98441.88
2018-07-01T17:43:01.755Z,98442.63
2018-07-01T17:45:37.179Z,98451.36
2018-07-01T17:48:09.889Z,98451.55
2018-07-01T17:50:42.497Z,98455.38
2018-07-01T17:54:01.536Z,98452.71
2018-07-01T17:56:33.031Z,98453.13
2018-07-01T17:59:04.519Z,98456.65
2018-07-01T18:01:36.806Z,98457.06
2018-07-01T18:04:09.764Z,98466.02
2018-07-01T18:06:41.576Z,98465.27
2018-07-01T18:09:13.725Z,98469.05
2018-07-01T18:11:45.475Z,98469.67
2018-07-01T18:14:17.282Z,98471.14
2018-07-01T18:16:49.436Z,98465.72
2018-07-01T19:05:19.342Z,98498.11
2018-07-01T19:07:53.068Z,98512.73
2018-07-01T19:10:26.506Z,98511.06
2018-07-01T19:13:01.115Z,98514.27
2018-07-01T19:15:34.264Z,98512.20
2018-07-01T19:18:09.173Z,98519.39
2018-07-01T19:20:43.018Z,98525.45
2018-07-01T19:23:16.116Z,98525.45
2018-07-01T19:25:49.346Z,98523.92
2018-07-01T19:28:22.491Z,98525.54
2018-07-01T19:30:55.671Z,98525.73
2018-07-01T19:33:29.609Z,98525.06
2018-07-01T19:36:02.685Z,98527.08
2018-07-01T19:38:35.209Z,98528.39
2018-07-01T19:41:09.312Z,98529.48
2018-07-01T19:43:42.978Z,98528.74
2018-07-01T19:46:16.987Z,98528.38
2018-07-01T19:48:50.765Z,98541.15
2018-07-01T19:51:24.151Z,98536.94
2018-07-01T19:53:58.000Z,98542.41
2018-07-01T19:56:33.117Z,98541.77
2018-07-01T19:59:06.274Z,98540.58
2018-07-01T20:01:41.288Z,98541.86
2018-07-01T20:04:14.984Z,98545.86
2018-07-01T20:06:48.410Z,98550.23
2018-07-01T20:09:21.969Z,98548.81
2018-07-01T20:11:55.061Z,98552.59
2018-07-01T20:14:28.616Z,98554.64
2018-07-01T20:17:02.351Z,98555.94
2018-07-01T20:19:36.726Z,98548.66
2018-07-01T20:22:10.477Z,98558.77
2018-07-01T20:24:44.872Z,98556.63
2018-07-01T20:27:18.297Z,98552.92
2018-07-01T20:29:52.052Z,98560.95
2018-07-01T20:32:25.675Z,98563.58
2018-07-01T20:34:59.204Z,98564.12
2018-07-01T20:37:32.953Z,98569.12
2018-07-01T20:40:05.961Z,98579.67
2018-07-01T20:42:39.244Z,98577.55
2018-07-01T20:45:14.016Z,98580.70
2018-07-01T20:47:48.004Z,98586.09
2018-07-01T20:50:22.504Z,98582.27
2018-07-01T20:52:57.127Z,98591.00
2018-07-01T20:55:29.960Z,98592.52
2018-07-01T20:58:04.405Z,98602.44
2018-07-01T21:00:37.856Z,98596.77
2018-07-01T21:03:11.535Z,98601.80
2018-07-01T21:05:45.472Z,98597.30
2018-07-01T21:08:18.097Z,98597.36
2018-07-01T21:10:50.556Z,98598.23
2018-07-01T21:13:23.207Z,98606.80
2018-07-01T21:15:56.340Z,98608.86
2018-07-01T21:18:28.404Z,98603.73
2018-07-01T21:21:00.327Z,98611.22
2018-07-01T21:23:32.631Z,98604.48
2018-07-01T21:26:05.333Z,98607.30
2018-07-01T21:28:36.941Z,98608.55
2018-07-01T21:31:10.093Z,98615.73
2018-07-01T21:33:42.997Z,98615.05
2018-07-01T21:36:15.096Z,98614.21
2018-07-01T21:38:47.476Z,98617.69
2018-07-01T21:41:20.357Z,98614.56
2018-07-01T21:43:53.431Z,98617.91
2018-07-01T21:46:25.743Z,98620.09
2018-07-01T21:48:59.336Z,98616.95
2018-07-01T21:51:31.899Z,98617.28
2018-07-01T21:54:04.748Z,98622.50
2018-07-01T21:56:39.063Z,98623.16
2018-07-01T21:59:12.329Z,98618.70
2018-07-01T22:01:45.456Z,98622.29
2018-07-01T22:04:18.161Z,98628.98
2018-07-01T22:06:54.811Z,98622.69
2018-07-01T22:09:28.556Z,98631.64
2018-07-01T22:12:15.715Z,98626.20
2018-07-01T22:15:05.472Z,98635.00
2018-07-01T22:17:37.983Z,98641.31
2018-07-01T22:20:10.588Z,98647.77
2018-07-01T22:22:44.123Z,98641.98
2018-07-01T22:25:17.079Z,98648.67
2018-07-01T22:27:49.545Z,98650.53
2018-07-01T22:30:21.991Z,98647.21
2018-07-01T22:32:54.691Z,98643.73
2018-07-01T22:35:26.257Z,98649.91
2018-07-01T22:37:58.380Z,98650.97
2018-07-01T22:40:30.000Z,98648.62
2018-07-01T22:43:03.164Z,98648.82
2018-07-01T22:45:35.879Z,98650.36
2018-07-01T22:48:08.496Z,98657.69
2018-07-01T22:50:40.925Z,98647.42
2018-07-01T22:53:14.196Z,98657.55
2018-07-01T22:55:46.512Z,98657.87
2018-07-01T22:58:18.410Z,98650.73
2018-07-01T23:00:51.340Z,98647.23
2018-07-01T23:03:23.268Z,98646.75
2018-07-01T23:05:55.871Z,98636.00
2018-07-01T23:08:27.230Z,98638.45
2018-07-01T23:10:59.475Z,98644.13
2018-07-01T23:13:31.261Z,98639.80
2018-07-01T23:16:02.945Z,98637.30
2018-07-01T23:18:34.257Z,98636.66
2018-07-01T23:21:05.574Z,98638.14
2018-07-01T23:23:36.666Z,98632.37
2018-07-01T23:26:08.144Z,98637.84
2018-07-01T23:28:39.427Z,98634.20
2018-07-01T23:31:10.452Z,98630.91
2018-07-01T23:33:42.117Z,98632.38
2018-07-01T23:36:13.320Z,98631.36
2018-07-01T23:38:44.914Z,98630.34
2018-07-01T23:41:16.224Z,98629.55
2018-07-01T23:43:47.566Z,98633.39
2018-07-01T23:46:19.160Z,98637.19
2018-07-01T23:48:51.458Z,98631.05
2018-07-01T23:51:23.009Z,98632.90
2018-07-01T23:53:54.674Z,98628.27
2018-07-01T23:56:26.663Z,98624.12
2018-07-01T23:58:58.070Z,98619.80
